sensor_id;sensor_type;location;lat;lon;timestamp;P1;durP1;ratioP1;P2;durP2;ratioP2
7485;SDS011;3784;54.098;9.998;2023-08-01T00:00:05;9.30;;;7.50;;
7485;SDS011;3784;54.098;9.998;2023-08-01T00:02:34;8.73;;;7.33;;
7485;SDS011;3784;54.098;9.998;2023-08-01T00:05:01;13.73;;;7.80;;
7485;SDS011;3784;54.098;9.998;2023-08-01T00:07:27;8.80;;;7.40;;
7485;SDS011;3784;54.098;9.998;2023-08-01T00:09:54;9.23;;;7.70;;
7485;SDS011;3784;54.098;9.998;2023-08-01T00:12:20;8.83;;;7.10;;
7485;SDS011;3784;54.098;9.998;2023-08-01T00:14:47;9.00;;;6.97;;
7485;SDS011;3784;54.098;9.998;2023-08-01T00:17:14;8.20;;;6.83;;
7485;SDS011;3784;54.098;9.998;2023-08-01T00:19:40;7.73;;;6.83;;
7485;SDS011;3784;54.098;9.998;2023-08-01T00:22:07;9.33;;;6.87;;
7485;SDS011;3784;54.098;9.998;2023-08-01T00:24:33;10.60;;;6.60;;
7485;SDS011;3784;54.098;9.998;2023-08-01T00:27:01;9.17;;;6.23;;
7485;SDS011;3784;54.098;9.998;2023-08-01T00:29:27;10.23;;;6.77;;
7485;SDS011;3784;54.098;9.998;2023-08-01T00:31:54;7.17;;;6.03;;
7485;SDS011;3784;54.098;9.998;2023-08-01T00:34:20;9.43;;;6.50;;
7485;SDS011;3784;54.098;9.998;2023-08-01T00:36:47;16.40;;;8.37;;
7485;SDS011;3784;54.098;9.998;2023-08-01T00:39:15;7.73;;;6.63;;
7485;SDS011;3784;54.098;9.998;2023-08-01T00:41:41;7.50;;;6.57;;
7485;SDS011;3784;54.098;9.998;2023-08-01T00:44:07;6.80;;;5.97;;
7485;SDS011;3784;54.098;9.998;2023-08-01T00:46:34;9.77;;;6.70;;
7485;SDS011;3784;54.098;9.998;2023-08-01T00:49:00;7.17;;;6.10;;
7485;SDS011;3784;54.098;9.998;2023-08-01T00:51:27;7.20;;;5.80;;
7485;SDS011;3784;54.098;9.998;2023-08-01T00:53:53;7.70;;;6.67;;
7485;SDS011;3784;54.098;9.998;2023-08-01T00:56:20;7.23;;;6.03;;
7485;SDS011;3784;54.098;9.998;2023-08-01T00:58:46;6.73;;;5.73;;
7485;SDS011;3784;54.098;9.998;2023-08-01T01:01:13;9.33;;;6.27;;
7485;SDS011;3784;54.098;9.998;2023-08-01T01:03:39;5.87;;;5.13;;
7485;SDS011;3784;54.098;9.998;2023-08-01T01:06:08;6.07;;;4.87;;
7485;SDS011;3784;54.098;9.998;2023-08-01T01:08:38;6.03;;;5.40;;
7485;SDS011;3784;54.098;9.998;2023-08-01T01:11:05;7.23;;;5.10;;
7485;SDS011;3784;54.098;9.998;2023-08-01T01:13:32;6.43;;;5.27;;
7485;SDS011;3784;54.098;9.998;2023-08-01T01:15:58;6.30;;;5.50;;
7485;SDS011;3784;54.098;9.998;2023-08-01T01:18:25;6.10;;;5.50;;
7485;SDS011;3784;54.098;9.998;2023-08-01T01:20:52;7.47;;;6.77;;
7485;SDS011;3784;54.098;9.998;2023-08-01T01:23:18;7.80;;;6.73;;
7485;SDS011;3784;54.098;9.998;2023-08-01T01:25:46;8.03;;;6.77;;
7485;SDS011;3784;54.098;9.998;2023-08-01T01:28:13;6.70;;;6.10;;
7485;SDS011;3784;54.098;9.998;2023-08-01T01:30:40;9.40;;;7.00;;
7485;SDS011;3784;54.098;9.998;2023-08-01T01:33:09;9.90;;;7.27;;
7485;SDS011;3784;54.098;9.998;2023-08-01T01:35:36;10.70;;;6.97;;
7485;SDS011;3784;54.098;9.998;2023-08-01T01:38:04;7.63;;;6.83;;
7485;SDS011;3784;54.098;9.998;2023-08-01T01:40:31;7.23;;;5.47;;
7485;SDS011;3784;54.098;9.998;2023-08-01T01:42:58;6.63;;;5.80;;
7485;SDS011;3784;54.098;9.998;2023-08-01T01:45:26;5.83;;;4.97;;
7485;SDS011;3784;54.098;9.998;2023-08-01T01:47:52;13.27;;;7.30;;
7485;SDS011;3784;54.098;9.998;2023-08-01T01:50:19;7.13;;;5.87;;
7485;SDS011;3784;54.098;9.998;2023-08-01T01:52:45;6.83;;;6.23;;
7485;SDS011;3784;54.098;9.998;2023-08-01T01:55:12;6.57;;;5.90;;
7485;SDS011;3784;54.098;9.998;2023-08-01T01:57:38;8.83;;;6.80;;
7485;SDS011;3784;54.098;9.998;2023-08-01T02:00:05;7.03;;;6.30;;
7485;SDS011;3784;54.098;9.998;2023-08-01T02:02:32;7.13;;;6.30;;
7485;SDS011;3784;54.098;9.998;2023-08-01T02:04:58;9.90;;;7.00;;
7485;SDS011;3784;54.098;9.998;2023-08-01T02:07:25;6.87;;;6.10;;
7485;SDS011;3784;54.098;9.998;2023-08-01T02:09:51;6.27;;;5.37;;
7485;SDS011;3784;54.098;9.998;2023-08-01T02:12:17;8.07;;;6.03;;
7485;SDS011;3784;54.098;9.998;2023-08-01T02:14:44;7.27;;;6.57;;
7485;SDS011;3784;54.098;9.998;2023-08-01T02:17:10;6.77;;;6.13;;
7485;SDS011;3784;54.098;9.998;2023-08-01T02:19:37;7.43;;;6.27;;
7485;SDS011;3784;54.098;9.998;2023-08-01T02:22:03;8.57;;;6.60;;
7485;SDS011;3784;54.098;9.998;2023-08-01T02:24:30;7.53;;;6.73;;
7485;SDS011;3784;54.098;9.998;2023-08-01T02:26:56;9.50;;;7.27;;
7485;SDS011;3784;54.098;9.998;2023-08-01T02:29:22;8.27;;;7.23;;
7485;SDS011;3784;54.098;9.998;2023-08-01T02:31:49;9.17;;;7.70;;
7485;SDS011;3784;54.098;9.998;2023-08-01T02:34:15;9.37;;;7.50;;
7485;SDS011;3784;54.098;9.998;2023-08-01T02:36:42;9.93;;;8.10;;
7485;SDS011;3784;54.098;9.998;2023-08-01T02:39:08;10.70;;;8.30;;
7485;SDS011;3784;54.098;9.998;2023-08-01T02:41:34;11.00;;;8.60;;
7485;SDS011;3784;54.098;9.998;2023-08-01T02:44:02;10.97;;;8.43;;
7485;SDS011;3784;54.098;9.998;2023-08-01T02:46:29;10.43;;;7.97;;
7485;SDS011;3784;54.098;9.998;2023-08-01T02:48:56;9.97;;;8.83;;
7485;SDS011;3784;54.098;9.998;2023-08-01T02:51:22;11.27;;;9.27;;
7485;SDS011;3784;54.098;9.998;2023-08-01T02:53:48;11.53;;;9.07;;
7485;SDS011;3784;54.098;9.998;2023-08-01T02:56:15;11.20;;;9.53;;
7485;SDS011;3784;54.098;9.998;2023-08-01T02:58:41;11.70;;;9.60;;
7485;SDS011;3784;54.098;9.998;2023-08-01T03:01:08;15.33;;;10.23;;
7485;SDS011;3784;54.098;9.998;2023-08-01T03:03:36;15.57;;;11.37;;
7485;SDS011;3784;54.098;9.998;2023-08-01T03:06:03;11.60;;;9.60;;
7485;SDS011;3784;54.098;9.998;2023-08-01T03:08:29;14.27;;;10.67;;
7485;SDS011;3784;54.098;9.998;2023-08-01T03:10:56;14.87;;;10.57;;
7485;SDS011;3784;54.098;9.998;2023-08-01T03:13:23;13.30;;;10.07;;
7485;SDS011;3784;54.098;9.998;2023-08-01T03:15:50;15.00;;;10.93;;
7485;SDS011;3784;54.098;9.998;2023-08-01T03:18:16;14.63;;;11.33;;
7485;SDS011;3784;54.098;9.998;2023-08-01T03:20:42;15.67;;;11.43;;
7485;SDS011;3784;54.098;9.998;2023-08-01T03:23:09;16.23;;;11.77;;
7485;SDS011;3784;54.098;9.998;2023-08-01T03:25:35;30.10;;;15.90;;
7485;SDS011;3784;54.098;9.998;2023-08-01T03:28:01;15.90;;;13.40;;
7485;SDS011;3784;54.098;9.998;2023-08-01T03:30:28;18.90;;;13.37;;
7485;SDS011;3784;54.098;9.998;2023-08-01T03:32:54;19.77;;;14.07;;
7485;SDS011;3784;54.098;9.998;2023-08-01T03:35:21;17.73;;;13.30;;
7485;SDS011;3784;54.098;9.998;2023-08-01T03:37:47;17.17;;;13.50;;
7485;SDS011;3784;54.098;9.998;2023-08-01T03:40:13;19.07;;;14.20;;
7485;SDS011;3784;54.098;9.998;2023-08-01T03:42:40;19.07;;;13.60;;
7485;SDS011;3784;54.098;9.998;2023-08-01T03:45:07;18.70;;;13.27;;
7485;SDS011;3784;54.098;9.998;2023-08-01T03:47:33;18.90;;;14.27;;
7485;SDS011;3784;54.098;9.998;2023-08-01T03:50:00;21.50;;;14.47;;
7485;SDS011;3784;54.098;9.998;2023-08-01T03:52:26;25.13;;;15.83;;
7485;SDS011;3784;54.098;9.998;2023-08-01T03:54:54;21.30;;;14.30;;
7485;SDS011;3784;54.098;9.998;2023-08-01T03:57:21;19.97;;;15.50;;
7485;SDS011;3784;54.098;9.998;2023-08-01T03:59:47;19.40;;;14.20;;
7485;SDS011;3784;54.098;9.998;2023-08-01T04:02:14;23.73;;;14.93;;
7485;SDS011;3784;54.098;9.998;2023-08-01T04:04:40;22.43;;;15.27;;
7485;SDS011;3784;54.098;9.998;2023-08-01T04:07:06;24.87;;;16.43;;
7485;SDS011;3784;54.098;9.998;2023-08-01T04:09:33;17.90;;;13.70;;
7485;SDS011;3784;54.098;9.998;2023-08-01T04:11:59;19.40;;;13.50;;
7485;SDS011;3784;54.098;9.998;2023-08-01T04:14:26;14.60;;;11.70;;
7485;SDS011;3784;54.098;9.998;2023-08-01T04:16:52;12.23;;;10.90;;
7485;SDS011;3784;54.098;9.998;2023-08-01T04:19:18;15.30;;;11.50;;
7485;SDS011;3784;54.098;9.998;2023-08-01T04:21:45;16.10;;;11.73;;
7485;SDS011;3784;54.098;9.998;2023-08-01T04:24:11;13.43;;;11.47;;
7485;SDS011;3784;54.098;9.998;2023-08-01T04:26:38;20.70;;;12.33;;
7485;SDS011;3784;54.098;9.998;2023-08-01T04:29:05;14.83;;;12.47;;
7485;SDS011;3784;54.098;9.998;2023-08-01T04:31:31;27.70;;;14.67;;
7485;SDS011;3784;54.098;9.998;2023-08-01T04:33:57;18.47;;;14.07;;
7485;SDS011;3784;54.098;9.998;2023-08-01T04:36:24;19.60;;;13.53;;
7485;SDS011;3784;54.098;9.998;2023-08-01T04:38:50;25.20;;;16.23;;
7485;SDS011;3784;54.098;9.998;2023-08-01T04:41:16;20.90;;;13.93;;
7485;SDS011;3784;54.098;9.998;2023-08-01T04:43:43;16.63;;;12.63;;
7485;SDS011;3784;54.098;9.998;2023-08-01T04:46:09;26.30;;;13.87;;
7485;SDS011;3784;54.098;9.998;2023-08-01T04:48:40;23.67;;;15.43;;
7485;SDS011;3784;54.098;9.998;2023-08-01T04:51:06;21.57;;;13.63;;
7485;SDS011;3784;54.098;9.998;2023-08-01T04:53:33;31.30;;;17.47;;
7485;SDS011;3784;54.098;9.998;2023-08-01T04:55:59;18.73;;;14.40;;
7485;SDS011;3784;54.098;9.998;2023-08-01T04:58:25;19.17;;;14.80;;
7485;SDS011;3784;54.098;9.998;2023-08-01T05:00:52;25.37;;;16.00;;
7485;SDS011;3784;54.098;9.998;2023-08-01T05:03:18;28.57;;;16.20;;
7485;SDS011;3784;54.098;9.998;2023-08-01T05:05:45;25.23;;;16.63;;
7485;SDS011;3784;54.098;9.998;2023-08-01T05:08:11;24.07;;;16.73;;
7485;SDS011;3784;54.098;9.998;2023-08-01T05:10:37;24.60;;;16.37;;
7485;SDS011;3784;54.098;9.998;2023-08-01T05:13:05;23.30;;;15.80;;
7485;SDS011;3784;54.098;9.998;2023-08-01T05:15:31;23.50;;;15.13;;
7485;SDS011;3784;54.098;9.998;2023-08-01T05:17:58;26.03;;;15.90;;
7485;SDS011;3784;54.098;9.998;2023-08-01T05:20:24;22.60;;;14.80;;
7485;SDS011;3784;54.098;9.998;2023-08-01T05:22:59;27.30;;;16.47;;
7485;SDS011;3784;54.098;9.998;2023-08-01T05:25:26;20.70;;;15.03;;
7485;SDS011;3784;54.098;9.998;2023-08-01T05:27:52;21.93;;;14.97;;
7485;SDS011;3784;54.098;9.998;2023-08-01T05:30:18;27.40;;;16.73;;
7485;SDS011;3784;54.098;9.998;2023-08-01T05:32:45;18.90;;;14.87;;
7485;SDS011;3784;54.098;9.998;2023-08-01T05:35:13;23.80;;;14.90;;
7485;SDS011;3784;54.098;9.998;2023-08-01T05:37:39;23.70;;;15.20;;
7485;SDS011;3784;54.098;9.998;2023-08-01T05:40:06;21.13;;;14.27;;
7485;SDS011;3784;54.098;9.998;2023-08-01T05:42:33;22.70;;;13.73;;
7485;SDS011;3784;54.098;9.998;2023-08-01T05:44:59;22.70;;;13.30;;
7485;SDS011;3784;54.098;9.998;2023-08-01T05:47:25;16.67;;;12.20;;
7485;SDS011;3784;54.098;9.998;2023-08-01T05:49:52;23.03;;;12.97;;
7485;SDS011;3784;54.098;9.998;2023-08-01T05:52:18;18.97;;;12.57;;
7485;SDS011;3784;54.098;9.998;2023-08-01T05:54:45;17.57;;;12.93;;
7485;SDS011;3784;54.098;9.998;2023-08-01T05:57:11;22.77;;;13.47;;
7485;SDS011;3784;54.098;9.998;2023-08-01T05:59:37;21.20;;;11.37;;
7485;SDS011;3784;54.098;9.998;2023-08-01T06:02:04;19.77;;;12.00;;
7485;SDS011;3784;54.098;9.998;2023-08-01T06:04:30;26.27;;;13.53;;
7485;SDS011;3784;54.098;9.998;2023-08-01T06:06:57;20.47;;;11.90;;
7485;SDS011;3784;54.098;9.998;2023-08-01T06:09:23;22.10;;;12.60;;
7485;SDS011;3784;54.098;9.998;2023-08-01T06:11:50;25.03;;;13.47;;
7485;SDS011;3784;54.098;9.998;2023-08-01T06:14:17;17.23;;;11.00;;
7485;SDS011;3784;54.098;9.998;2023-08-01T06:16:43;18.87;;;12.20;;
7485;SDS011;3784;54.098;9.998;2023-08-01T06:19:10;16.30;;;10.87;;
7485;SDS011;3784;54.098;9.998;2023-08-01T06:21:36;15.40;;;10.60;;
7485;SDS011;3784;54.098;9.998;2023-08-01T06:24:03;13.17;;;10.07;;
7485;SDS011;3784;54.098;9.998;2023-08-01T06:26:29;17.23;;;10.63;;
7485;SDS011;3784;54.098;9.998;2023-08-01T06:28:56;12.70;;;9.40;;
7485;SDS011;3784;54.098;9.998;2023-08-01T06:31:22;10.50;;;8.33;;
7485;SDS011;3784;54.098;9.998;2023-08-01T06:33:49;12.20;;;8.90;;
7485;SDS011;3784;54.098;9.998;2023-08-01T06:36:15;15.20;;;8.57;;
7485;SDS011;3784;54.098;9.998;2023-08-01T06:38:43;16.87;;;8.23;;
7485;SDS011;3784;54.098;9.998;2023-08-01T06:41:10;11.77;;;7.50;;
7485;SDS011;3784;54.098;9.998;2023-08-01T06:43:36;11.73;;;8.10;;
7485;SDS011;3784;54.098;9.998;2023-08-01T06:46:05;17.27;;;8.97;;
7485;SDS011;3784;54.098;9.998;2023-08-01T06:48:32;18.57;;;8.17;;
7485;SDS011;3784;54.098;9.998;2023-08-01T06:51:01;14.50;;;8.60;;
7485;SDS011;3784;54.098;9.998;2023-08-01T06:53:31;9.80;;;6.50;;
7485;SDS011;3784;54.098;9.998;2023-08-01T06:55:57;13.67;;;7.00;;
7485;SDS011;3784;54.098;9.998;2023-08-01T06:58:24;9.20;;;7.10;;
7485;SDS011;3784;54.098;9.998;2023-08-01T07:00:50;10.73;;;7.30;;
7485;SDS011;3784;54.098;9.998;2023-08-01T07:03:16;11.53;;;8.07;;
7485;SDS011;3784;54.098;9.998;2023-08-01T07:05:43;7.87;;;5.80;;
7485;SDS011;3784;54.098;9.998;2023-08-01T07:08:09;10.07;;;6.27;;
7485;SDS011;3784;54.098;9.998;2023-08-01T07:10:37;8.10;;;4.90;;
7485;SDS011;3784;54.098;9.998;2023-08-01T07:13:03;7.00;;;5.33;;
7485;SDS011;3784;54.098;9.998;2023-08-01T07:15:31;5.27;;;4.77;;
7485;SDS011;3784;54.098;9.998;2023-08-01T07:18:00;9.33;;;5.93;;
7485;SDS011;3784;54.098;9.998;2023-08-01T07:20:27;9.10;;;6.27;;
7485;SDS011;3784;54.098;9.998;2023-08-01T07:22:53;9.77;;;5.03;;
7485;SDS011;3784;54.098;9.998;2023-08-01T07:25:19;8.37;;;5.33;;
7485;SDS011;3784;54.098;9.998;2023-08-01T07:27:46;10.13;;;6.37;;
7485;SDS011;3784;54.098;9.998;2023-08-01T07:30:12;11.27;;;6.77;;
7485;SDS011;3784;54.098;9.998;2023-08-01T07:32:39;11.20;;;6.47;;
7485;SDS011;3784;54.098;9.998;2023-08-01T07:35:06;9.87;;;6.00;;
7485;SDS011;3784;54.098;9.998;2023-08-01T07:37:35;7.97;;;5.60;;
7485;SDS011;3784;54.098;9.998;2023-08-01T07:40:06;6.47;;;4.77;;
7485;SDS011;3784;54.098;9.998;2023-08-01T07:42:33;5.90;;;4.73;;
7485;SDS011;3784;54.098;9.998;2023-08-01T07:44:59;5.77;;;4.23;;
7485;SDS011;3784;54.098;9.998;2023-08-01T07:47:26;6.40;;;4.30;;
7485;SDS011;3784;54.098;9.998;2023-08-01T07:49:53;4.77;;;3.57;;
7485;SDS011;3784;54.098;9.998;2023-08-01T07:52:19;4.43;;;3.17;;
7485;SDS011;3784;54.098;9.998;2023-08-01T07:54:45;5.20;;;3.43;;
7485;SDS011;3784;54.098;9.998;2023-08-01T07:57:12;4.93;;;3.17;;
7485;SDS011;3784;54.098;9.998;2023-08-01T07:59:38;6.27;;;3.27;;
7485;SDS011;3784;54.098;9.998;2023-08-01T08:02:05;3.63;;;2.93;;
7485;SDS011;3784;54.098;9.998;2023-08-01T08:04:31;4.60;;;2.57;;
7485;SDS011;3784;54.098;9.998;2023-08-01T08:06:57;4.40;;;2.63;;
7485;SDS011;3784;54.098;9.998;2023-08-01T08:09:26;5.03;;;3.17;;
7485;SDS011;3784;54.098;9.998;2023-08-01T08:11:53;4.23;;;3.07;;
7485;SDS011;3784;54.098;9.998;2023-08-01T08:14:20;5.27;;;3.03;;
7485;SDS011;3784;54.098;9.998;2023-08-01T08:16:47;4.47;;;2.90;;
7485;SDS011;3784;54.098;9.998;2023-08-01T08:19:14;5.77;;;3.53;;
7485;SDS011;3784;54.098;9.998;2023-08-01T08:21:41;4.47;;;3.00;;
7485;SDS011;3784;54.098;9.998;2023-08-01T08:24:07;7.17;;;3.80;;
7485;SDS011;3784;54.098;9.998;2023-08-01T08:26:33;5.40;;;3.13;;
7485;SDS011;3784;54.098;9.998;2023-08-01T08:29:04;5.50;;;3.30;;
7485;SDS011;3784;54.098;9.998;2023-08-01T08:31:33;8.23;;;3.43;;
7485;SDS011;3784;54.098;9.998;2023-08-01T08:34:00;7.17;;;3.43;;
7485;SDS011;3784;54.098;9.998;2023-08-01T08:36:26;4.80;;;3.40;;
7485;SDS011;3784;54.098;9.998;2023-08-01T08:38:52;5.73;;;3.20;;
7485;SDS011;3784;54.098;9.998;2023-08-01T08:41:23;6.07;;;3.43;;
7485;SDS011;3784;54.098;9.998;2023-08-01T08:43:53;7.73;;;3.20;;
7485;SDS011;3784;54.098;9.998;2023-08-01T08:46:23;5.67;;;2.97;;
7485;SDS011;3784;54.098;9.998;2023-08-01T08:48:53;5.93;;;3.30;;
7485;SDS011;3784;54.098;9.998;2023-08-01T08:51:21;6.80;;;2.97;;
7485;SDS011;3784;54.098;9.998;2023-08-01T08:53:48;4.30;;;2.87;;
7485;SDS011;3784;54.098;9.998;2023-08-01T08:56:15;5.03;;;3.00;;
7485;SDS011;3784;54.098;9.998;2023-08-01T08:58:41;6.00;;;2.93;;
7485;SDS011;3784;54.098;9.998;2023-08-01T09:01:08;4.77;;;3.00;;
7485;SDS011;3784;54.098;9.998;2023-08-01T09:03:35;6.10;;;2.80;;
7485;SDS011;3784;54.098;9.998;2023-08-01T09:06:04;4.80;;;2.57;;
7485;SDS011;3784;54.098;9.998;2023-08-01T09:08:36;7.13;;;2.83;;
7485;SDS011;3784;54.098;9.998;2023-08-01T09:11:03;7.00;;;2.67;;
7485;SDS011;3784;54.098;9.998;2023-08-01T09:13:30;6.50;;;2.70;;
7485;SDS011;3784;54.098;9.998;2023-08-01T09:15:57;4.77;;;2.70;;
7485;SDS011;3784;54.098;9.998;2023-08-01T09:18:23;4.80;;;2.10;;
7485;SDS011;3784;54.098;9.998;2023-08-01T09:20:50;4.70;;;2.80;;
7485;SDS011;3784;54.098;9.998;2023-08-01T09:23:16;7.43;;;2.90;;
7485;SDS011;3784;54.098;9.998;2023-08-01T09:25:43;5.97;;;2.73;;
7485;SDS011;3784;54.098;9.998;2023-08-01T09:30:47;5.13;;;2.93;;
7485;SDS011;3784;54.098;9.998;2023-08-01T09:33:17;6.03;;;2.93;;
7485;SDS011;3784;54.098;9.998;2023-08-01T09:35:44;9.23;;;3.67;;
7485;SDS011;3784;54.098;9.998;2023-08-01T09:38:13;6.60;;;2.80;;
7485;SDS011;3784;54.098;9.998;2023-08-01T09:40:40;7.77;;;3.53;;
7485;SDS011;3784;54.098;9.998;2023-08-01T09:43:08;8.90;;;3.70;;
7485;SDS011;3784;54.098;9.998;2023-08-01T09:45:35;7.40;;;3.53;;
7485;SDS011;3784;54.098;9.998;2023-08-01T09:48:02;6.57;;;3.20;;
7485;SDS011;3784;54.098;9.998;2023-08-01T09:50:29;5.60;;;3.13;;
7485;SDS011;3784;54.098;9.998;2023-08-01T09:52:55;6.27;;;2.80;;
7485;SDS011;3784;54.098;9.998;2023-08-01T09:55:26;5.50;;;2.40;;
7485;SDS011;3784;54.098;9.998;2023-08-01T09:57:57;2.87;;;1.47;;
7485;SDS011;3784;54.098;9.998;2023-08-01T10:00:28;2.37;;;1.33;;
7485;SDS011;3784;54.098;9.998;2023-08-01T10:02:57;2.70;;;1.40;;
7485;SDS011;3784;54.098;9.998;2023-08-01T10:05:30;4.63;;;1.60;;
7485;SDS011;3784;54.098;9.998;2023-08-01T10:07:59;2.07;;;1.60;;
7485;SDS011;3784;54.098;9.998;2023-08-01T10:10:27;3.83;;;1.80;;
7485;SDS011;3784;54.098;9.998;2023-08-01T10:12:54;3.57;;;1.90;;
7485;SDS011;3784;54.098;9.998;2023-08-01T10:15:25;2.53;;;1.90;;
7485;SDS011;3784;54.098;9.998;2023-08-01T10:17:52;3.00;;;1.70;;
7485;SDS011;3784;54.098;9.998;2023-08-01T10:20:20;3.30;;;1.70;;
7485;SDS011;3784;54.098;9.998;2023-08-01T10:22:48;3.03;;;2.00;;
7485;SDS011;3784;54.098;9.998;2023-08-01T10:25:15;4.03;;;2.10;;
7485;SDS011;3784;54.098;9.998;2023-08-01T10:27:42;4.33;;;2.10;;
7485;SDS011;3784;54.098;9.998;2023-08-01T10:30:08;3.10;;;1.87;;
7485;SDS011;3784;54.098;9.998;2023-08-01T10:32:36;3.00;;;1.70;;
7485;SDS011;3784;54.098;9.998;2023-08-01T10:35:04;2.47;;;1.53;;
7485;SDS011;3784;54.098;9.998;2023-08-01T10:37:42;3.00;;;1.57;;
7485;SDS011;3784;54.098;9.998;2023-08-01T10:40:10;3.77;;;1.50;;
7485;SDS011;3784;54.098;9.998;2023-08-01T10:42:41;3.17;;;1.43;;
7485;SDS011;3784;54.098;9.998;2023-08-01T10:45:22;2.00;;;1.33;;
7485;SDS011;3784;54.098;9.998;2023-08-01T10:47:50;3.60;;;1.30;;
7485;SDS011;3784;54.098;9.998;2023-08-01T10:50:17;3.33;;;1.53;;
7485;SDS011;3784;54.098;9.998;2023-08-01T10:52:44;3.40;;;1.80;;
7485;SDS011;3784;54.098;9.998;2023-08-01T10:55:12;3.17;;;1.40;;
7485;SDS011;3784;54.098;9.998;2023-08-01T10:57:47;2.73;;;1.50;;
7485;SDS011;3784;54.098;9.998;2023-08-01T11:00:15;3.93;;;1.50;;
7485;SDS011;3784;54.098;9.998;2023-08-01T11:02:48;4.37;;;1.63;;
7485;SDS011;3784;54.098;9.998;2023-08-01T11:05:18;3.50;;;1.53;;
7485;SDS011;3784;54.098;9.998;2023-08-01T11:07:58;3.03;;;1.50;;
7485;SDS011;3784;54.098;9.998;2023-08-01T11:10:26;2.70;;;1.57;;
7485;SDS011;3784;54.098;9.998;2023-08-01T11:12:54;2.97;;;1.43;;
7485;SDS011;3784;54.098;9.998;2023-08-01T11:15:21;3.27;;;1.40;;
7485;SDS011;3784;54.098;9.998;2023-08-01T11:17:52;3.13;;;1.73;;
7485;SDS011;3784;54.098;9.998;2023-08-01T11:20:19;2.70;;;1.60;;
7485;SDS011;3784;54.098;9.998;2023-08-01T11:22:52;2.97;;;1.63;;
7485;SDS011;3784;54.098;9.998;2023-08-01T11:25:31;2.27;;;1.40;;
7485;SDS011;3784;54.098;9.998;2023-08-01T11:28:32;5.00;;;1.73;;
7485;SDS011;3784;54.098;9.998;2023-08-01T11:30:52;4.83;;;1.33;;
7485;SDS011;3784;54.098;9.998;2023-08-01T11:35:53;1.87;;;1.43;;
7485;SDS011;3784;54.098;9.998;2023-08-01T11:38:23;3.93;;;1.80;;
7485;SDS011;3784;54.098;9.998;2023-08-01T11:40:51;3.90;;;1.40;;
7485;SDS011;3784;54.098;9.998;2023-08-01T11:43:18;3.30;;;1.37;;
7485;SDS011;3784;54.098;9.998;2023-08-01T11:45:48;4.43;;;1.80;;
7485;SDS011;3784;54.098;9.998;2023-08-01T11:48:22;3.90;;;1.40;;
7485;SDS011;3784;54.098;9.998;2023-08-01T11:50:49;3.47;;;1.60;;
7485;SDS011;3784;54.098;9.998;2023-08-01T11:53:22;3.03;;;1.73;;
7485;SDS011;3784;54.098;9.998;2023-08-01T11:55:49;2.33;;;1.63;;
7485;SDS011;3784;54.098;9.998;2023-08-01T11:58:29;3.70;;;1.50;;
7485;SDS011;3784;54.098;9.998;2023-08-01T12:01:03;4.87;;;1.90;;
7485;SDS011;3784;54.098;9.998;2023-08-01T12:03:50;2.63;;;1.33;;
7485;SDS011;3784;54.098;9.998;2023-08-01T12:06:19;5.63;;;1.77;;
7485;SDS011;3784;54.098;9.998;2023-08-01T12:08:48;4.10;;;1.80;;
7485;SDS011;3784;54.098;9.998;2023-08-01T12:16:41;3.13;;;1.50;;
7485;SDS011;3784;54.098;9.998;2023-08-01T12:19:16;4.03;;;1.73;;
7485;SDS011;3784;54.098;9.998;2023-08-01T12:21:43;3.37;;;1.40;;
7485;SDS011;3784;54.098;9.998;2023-08-01T12:24:10;3.30;;;1.70;;
7485;SDS011;3784;54.098;9.998;2023-08-01T12:26:36;4.03;;;1.47;;
7485;SDS011;3784;54.098;9.998;2023-08-01T12:29:03;2.67;;;1.37;;
7485;SDS011;3784;54.098;9.998;2023-08-01T12:31:29;2.60;;;1.50;;
7485;SDS011;3784;54.098;9.998;2023-08-01T12:33:56;6.73;;;1.77;;
7485;SDS011;3784;54.098;9.998;2023-08-01T12:36:22;2.33;;;1.23;;
7485;SDS011;3784;54.098;9.998;2023-08-01T12:38:49;2.63;;;1.40;;
7485;SDS011;3784;54.098;9.998;2023-08-01T12:41:16;2.40;;;1.30;;
7485;SDS011;3784;54.098;9.998;2023-08-01T12:43:42;2.80;;;1.43;;
7485;SDS011;3784;54.098;9.998;2023-08-01T12:46:09;2.37;;;1.57;;
7485;SDS011;3784;54.098;9.998;2023-08-01T12:48:36;1.93;;;1.27;;
7485;SDS011;3784;54.098;9.998;2023-08-01T12:51:02;1.73;;;1.37;;
7485;SDS011;3784;54.098;9.998;2023-08-01T12:53:29;1.93;;;1.30;;
7485;SDS011;3784;54.098;9.998;2023-08-01T12:55:56;1.37;;;1.10;;
7485;SDS011;3784;54.098;9.998;2023-08-01T12:58:23;3.83;;;1.20;;
7485;SDS011;3784;54.098;9.998;2023-08-01T13:00:50;2.77;;;1.20;;
7485;SDS011;3784;54.098;9.998;2023-08-01T13:03:16;2.40;;;1.50;;
7485;SDS011;3784;54.098;9.998;2023-08-01T13:05:43;4.37;;;1.97;;
7485;SDS011;3784;54.098;9.998;2023-08-01T13:08:10;6.00;;;2.30;;
7485;SDS011;3784;54.098;9.998;2023-08-01T13:10:37;7.10;;;1.87;;
7485;SDS011;3784;54.098;9.998;2023-08-01T13:13:05;5.17;;;2.00;;
7485;SDS011;3784;54.098;9.998;2023-08-01T13:15:31;2.90;;;1.70;;
7485;SDS011;3784;54.098;9.998;2023-08-01T13:17:58;3.40;;;1.50;;
7485;SDS011;3784;54.098;9.998;2023-08-01T13:20:24;5.00;;;1.50;;
7485;SDS011;3784;54.098;9.998;2023-08-01T13:22:54;2.70;;;1.53;;
7485;SDS011;3784;54.098;9.998;2023-08-01T13:25:21;2.67;;;1.80;;
7485;SDS011;3784;54.098;9.998;2023-08-01T13:27:47;4.03;;;1.63;;
7485;SDS011;3784;54.098;9.998;2023-08-01T13:30:14;4.60;;;2.00;;
7485;SDS011;3784;54.098;9.998;2023-08-01T13:32:40;2.27;;;1.47;;
7485;SDS011;3784;54.098;9.998;2023-08-01T13:35:07;4.57;;;1.93;;
7485;SDS011;3784;54.098;9.998;2023-08-01T13:37:33;4.30;;;1.70;;
7485;SDS011;3784;54.098;9.998;2023-08-01T13:40:01;2.30;;;1.30;;
7485;SDS011;3784;54.098;9.998;2023-08-01T13:42:28;2.07;;;1.20;;
7485;SDS011;3784;54.098;9.998;2023-08-01T13:44:55;2.97;;;1.40;;
7485;SDS011;3784;54.098;9.998;2023-08-01T13:47:21;1.13;;;0.87;;
7485;SDS011;3784;54.098;9.998;2023-08-01T13:49:48;1.33;;;1.00;;
7485;SDS011;3784;54.098;9.998;2023-08-01T13:52:14;1.97;;;1.27;;
7485;SDS011;3784;54.098;9.998;2023-08-01T13:54:40;1.73;;;1.10;;
7485;SDS011;3784;54.098;9.998;2023-08-01T13:57:07;2.50;;;1.20;;
7485;SDS011;3784;54.098;9.998;2023-08-01T13:59:33;1.67;;;1.23;;
7485;SDS011;3784;54.098;9.998;2023-08-01T14:02:00;2.20;;;1.10;;
7485;SDS011;3784;54.098;9.998;2023-08-01T14:04:26;1.70;;;1.20;;
7485;SDS011;3784;54.098;9.998;2023-08-01T14:06:52;1.77;;;1.03;;
7485;SDS011;3784;54.098;9.998;2023-08-01T14:09:19;1.73;;;1.30;;
7485;SDS011;3784;54.098;9.998;2023-08-01T14:11:45;1.40;;;1.10;;
7485;SDS011;3784;54.098;9.998;2023-08-01T14:14:11;1.70;;;1.10;;
7485;SDS011;3784;54.098;9.998;2023-08-01T14:16:38;1.90;;;1.20;;
7485;SDS011;3784;54.098;9.998;2023-08-01T14:19:05;1.53;;;1.10;;
7485;SDS011;3784;54.098;9.998;2023-08-01T14:21:35;1.97;;;1.20;;
7485;SDS011;3784;54.098;9.998;2023-08-01T14:24:02;1.73;;;1.20;;
7485;SDS011;3784;54.098;9.998;2023-08-01T14:26:28;2.23;;;1.00;;
7485;SDS011;3784;54.098;9.998;2023-08-01T14:28:54;2.27;;;1.10;;
7485;SDS011;3784;54.098;9.998;2023-08-01T14:31:21;2.40;;;1.00;;
7485;SDS011;3784;54.098;9.998;2023-08-01T14:33:47;3.63;;;1.17;;
7485;SDS011;3784;54.098;9.998;2023-08-01T14:36:14;1.70;;;1.00;;
7485;SDS011;3784;54.098;9.998;2023-08-01T14:38:40;2.17;;;1.00;;
7485;SDS011;3784;54.098;9.998;2023-08-01T14:41:07;2.40;;;0.90;;
7485;SDS011;3784;54.098;9.998;2023-08-01T14:43:53;2.90;;;1.07;;
7485;SDS011;3784;54.098;9.998;2023-08-01T14:46:19;3.03;;;1.27;;
7485;SDS011;3784;54.098;9.998;2023-08-01T14:48:46;3.57;;;1.43;;
7485;SDS011;3784;54.098;9.998;2023-08-01T14:51:12;2.27;;;1.20;;
7485;SDS011;3784;54.098;9.998;2023-08-01T14:53:38;4.13;;;1.70;;
7485;SDS011;3784;54.098;9.998;2023-08-01T14:56:05;3.20;;;1.40;;
7485;SDS011;3784;54.098;9.998;2023-08-01T14:58:34;2.73;;;1.20;;
7485;SDS011;3784;54.098;9.998;2023-08-01T15:01:05;4.63;;;1.40;;
7485;SDS011;3784;54.098;9.998;2023-08-01T15:03:38;4.63;;;1.50;;
7485;SDS011;3784;54.098;9.998;2023-08-01T15:06:05;3.27;;;1.20;;
7485;SDS011;3784;54.098;9.998;2023-08-01T15:08:33;2.63;;;1.10;;
7485;SDS011;3784;54.098;9.998;2023-08-01T15:11:07;3.80;;;1.00;;
7485;SDS011;3784;54.098;9.998;2023-08-01T15:13:34;3.50;;;1.13;;
7485;SDS011;3784;54.098;9.998;2023-08-01T15:16:01;1.93;;;1.07;;
7485;SDS011;3784;54.098;9.998;2023-08-01T15:18:27;2.77;;;1.10;;